sensor_id;sensor_type;location;lat;lon;timestamp;temperature;humidity
758;DHT22;363;48.764;9.172;2023-05-23T00:02:08;18.80;99.90
758;DHT22;363;48.764;9.172;2023-05-23T00:04:34;18.90;99.90
758;DHT22;363;48.764;9.172;2023-05-23T00:07:04;18.80;99.90
758;DHT22;363;48.764;9.172;2023-05-23T00:09:30;18.80;99.90
758;DHT22;363;48.764;9.172;2023-05-23T00:11:56;18.70;99.90
758;DHT22;363;48.764;9.172;2023-05-23T00:14:21;18.70;99.90
758;DHT22;363;48.764;9.172;2023-05-23T00:16:48;19.00;99.90
758;DHT22;363;48.764;9.172;2023-05-23T00:19:14;18.70;99.90
758;DHT22;363;48.764;9.172;2023-05-23T00:21:45;18.80;99.90
758;DHT22;363;48.764;9.172;2023-05-23T00:24:15;18.30;99.90
758;DHT22;363;48.764;9.172;2023-05-23T00:26:45;19.10;99.90
758;DHT22;363;48.764;9.172;2023-05-23T00:29:11;18.70;99.90
758;DHT22;363;48.764;9.172;2023-05-23T00:31:44;18.70;99.90
758;DHT22;363;48.764;9.172;2023-05-23T00:34:13;18.60;99.90
758;DHT22;363;48.764;9.172;2023-05-23T00:36:39;18.80;99.90
758;DHT22;363;48.764;9.172;2023-05-23T00:39:06;19.10;99.90
758;DHT22;363;48.764;9.172;2023-05-23T00:41:32;19.00;99.90
758;DHT22;363;48.764;9.172;2023-05-23T00:43:58;18.90;99.90
758;DHT22;363;48.764;9.172;2023-05-23T00:46:25;19.10;99.90
758;DHT22;363;48.764;9.172;2023-05-23T00:48:52;19.00;99.90
758;DHT22;363;48.764;9.172;2023-05-23T00:51:18;19.10;99.90
758;DHT22;363;48.764;9.172;2023-05-23T00:53:44;19.20;99.90
758;DHT22;363;48.764;9.172;2023-05-23T00:56:09;19.20;99.90
758;DHT22;363;48.764;9.172;2023-05-23T00:58:37;19.20;99.90
758;DHT22;363;48.764;9.172;2023-05-23T01:01:02;19.30;99.90
758;DHT22;363;48.764;9.172;2023-05-23T01:03:28;19.50;99.90
758;DHT22;363;48.764;9.172;2023-05-23T01:05:55;19.20;99.90
758;DHT22;363;48.764;9.172;2023-05-23T01:08:21;19.20;99.90
758;DHT22;363;48.764;9.172;2023-05-23T01:10:47;19.30;99.90
758;DHT22;363;48.764;9.172;2023-05-23T01:15:59;19.50;99.90
758;DHT22;363;48.764;9.172;2023-05-23T01:18:37;19.00;99.90
758;DHT22;363;48.764;9.172;2023-05-23T01:21:11;19.10;99.90
758;DHT22;363;48.764;9.172;2023-05-23T01:29:46;18.90;99.90
758;DHT22;363;48.764;9.172;2023-05-23T01:32:15;19.00;99.90
758;DHT22;363;48.764;9.172;2023-05-23T01:34:41;19.00;99.90
758;DHT22;363;48.764;9.172;2023-05-23T01:37:09;19.00;99.90
758;DHT22;363;48.764;9.172;2023-05-23T01:39:36;19.00;99.90
758;DHT22;363;48.764;9.172;2023-05-23T01:42:02;19.00;99.90
758;DHT22;363;48.764;9.172;2023-05-23T01:44:29;19.00;99.90
758;DHT22;363;48.764;9.172;2023-05-23T01:46:55;19.00;99.90
758;DHT22;363;48.764;9.172;2023-05-23T01:49:21;18.90;99.90
758;DHT22;363;48.764;9.172;2023-05-23T01:51:48;19.30;99.90
758;DHT22;363;48.764;9.172;2023-05-23T01:54:15;18.80;99.90
758;DHT22;363;48.764;9.172;2023-05-23T01:56:41;18.90;99.90
758;DHT22;363;48.764;9.172;2023-05-23T01:59:08;18.90;99.90
758;DHT22;363;48.764;9.172;2023-05-23T02:01:34;19.00;99.90
758;DHT22;363;48.764;9.172;2023-05-23T02:04:00;18.80;99.90
758;DHT22;363;48.764;9.172;2023-05-23T02:06:25;18.80;99.90
758;DHT22;363;48.764;9.172;2023-05-23T02:08:51;18.70;99.90
758;DHT22;363;48.764;9.172;2023-05-23T02:11:17;18.70;99.90
758;DHT22;363;48.764;9.172;2023-05-23T02:13:42;18.70;99.90
758;DHT22;363;48.764;9.172;2023-05-23T02:16:11;18.60;99.90
758;DHT22;363;48.764;9.172;2023-05-23T02:18:38;18.20;99.90
758;DHT22;363;48.764;9.172;2023-05-23T02:21:06;18.40;99.90
758;DHT22;363;48.764;9.172;2023-05-23T02:23:32;18.50;99.90
758;DHT22;363;48.764;9.172;2023-05-23T02:25:58;18.80;99.90
758;DHT22;363;48.764;9.172;2023-05-23T02:28:23;17.90;99.90
758;DHT22;363;48.764;9.172;2023-05-23T02:30:49;18.70;99.90
758;DHT22;363;48.764;9.172;2023-05-23T02:33:15;18.50;99.90
758;DHT22;363;48.764;9.172;2023-05-23T02:35:41;18.50;99.90
758;DHT22;363;48.764;9.172;2023-05-23T02:38:06;18.50;99.90
758;DHT22;363;48.764;9.172;2023-05-23T02:40:32;18.50;99.90
758;DHT22;363;48.764;9.172;2023-05-23T02:42:57;18.50;99.90
758;DHT22;363;48.764;9.172;2023-05-23T02:45:23;18.50;99.90
758;DHT22;363;48.764;9.172;2023-05-23T02:47:49;18.50;99.90
758;DHT22;363;48.764;9.172;2023-05-23T02:50:14;18.40;99.90
758;DHT22;363;48.764;9.172;2023-05-23T02:52:40;18.40;99.90
758;DHT22;363;48.764;9.172;2023-05-23T02:55:07;18.50;99.90
758;DHT22;363;48.764;9.172;2023-05-23T02:57:33;18.50;99.90
758;DHT22;363;48.764;9.172;2023-05-23T02:59:59;18.50;99.90
758;DHT22;363;48.764;9.172;2023-05-23T03:02:24;18.50;99.90
758;DHT22;363;48.764;9.172;2023-05-23T03:04:50;18.50;99.90
758;DHT22;363;48.764;9.172;2023-05-23T03:07:15;18.50;99.90
758;DHT22;363;48.764;9.172;2023-05-23T03:09:41;18.50;99.90
758;DHT22;363;48.764;9.172;2023-05-23T03:12:07;18.20;99.90
758;DHT22;363;48.764;9.172;2023-05-23T03:14:32;18.60;99.90
758;DHT22;363;48.764;9.172;2023-05-23T03:16:58;18.40;99.90
758;DHT22;363;48.764;9.172;2023-05-23T03:19:24;18.50;99.90
758;DHT22;363;48.764;9.172;2023-05-23T03:21:51;18.60;99.90
758;DHT22;363;48.764;9.172;2023-05-23T03:24:16;18.70;99.90
758;DHT22;363;48.764;9.172;2023-05-23T03:26:45;18.50;99.90
758;DHT22;363;48.764;9.172;2023-05-23T03:29:11;18.50;99.90
758;DHT22;363;48.764;9.172;2023-05-23T03:31:36;18.40;99.90
758;DHT22;363;48.764;9.172;2023-05-23T03:34:03;18.40;99.90
758;DHT22;363;48.764;9.172;2023-05-23T03:36:31;18.40;99.90
758;DHT22;363;48.764;9.172;2023-05-23T03:39:03;18.50;99.90
758;DHT22;363;48.764;9.172;2023-05-23T03:41:29;18.30;99.90
758;DHT22;363;48.764;9.172;2023-05-23T03:43:54;18.40;99.90
758;DHT22;363;48.764;9.172;2023-05-23T03:46:20;18.30;99.90
758;DHT22;363;48.764;9.172;2023-05-23T03:48:45;18.30;99.90
758;DHT22;363;48.764;9.172;2023-05-23T03:51:11;18.30;99.90
758;DHT22;363;48.764;9.172;2023-05-23T03:53:38;18.10;99.90
758;DHT22;363;48.764;9.172;2023-05-23T03:56:03;18.10;99.90
758;DHT22;363;48.764;9.172;2023-05-23T03:58:29;18.30;99.90
758;DHT22;363;48.764;9.172;2023-05-23T04:00:55;18.30;99.90
758;DHT22;363;48.764;9.172;2023-05-23T04:03:20;18.70;99.90
758;DHT22;363;48.764;9.172;2023-05-23T04:05:46;18.30;99.90
758;DHT22;363;48.764;9.172;2023-05-23T04:08:11;18.20;99.90
758;DHT22;363;48.764;9.172;2023-05-23T04:10:37;18.30;99.90
758;DHT22;363;48.764;9.172;2023-05-23T04:13:03;18.30;99.90
758;DHT22;363;48.764;9.172;2023-05-23T04:15:28;18.40;99.90
758;DHT22;363;48.764;9.172;2023-05-23T04:17:54;18.30;99.90
758;DHT22;363;48.764;9.172;2023-05-23T04:20:20;18.30;99.90
758;DHT22;363;48.764;9.172;2023-05-23T04:22:46;18.30;99.90
758;DHT22;363;48.764;9.172;2023-05-23T04:25:12;18.50;99.90
758;DHT22;363;48.764;9.172;2023-05-23T04:27:38;18.40;99.90
758;DHT22;363;48.764;9.172;2023-05-23T04:30:06;18.40;99.90
758;DHT22;363;48.764;9.172;2023-05-23T04:32:34;18.90;99.90
758;DHT22;363;48.764;9.172;2023-05-23T04:35:00;18.60;99.90
758;DHT22;363;48.764;9.172;2023-05-23T04:37:29;18.50;99.90
758;DHT22;363;48.764;9.172;2023-05-23T04:39:57;18.50;99.90
758;DHT22;363;48.764;9.172;2023-05-23T04:42:24;18.60;99.90
758;DHT22;363;48.764;9.172;2023-05-23T04:44:50;18.60;99.90
758;DHT22;363;48.764;9.172;2023-05-23T04:47:17;18.60;99.90
758;DHT22;363;48.764;9.172;2023-05-23T04:49:43;18.50;99.90
758;DHT22;363;48.764;9.172;2023-05-23T04:52:09;18.50;99.90
758;DHT22;363;48.764;9.172;2023-05-23T04:54:35;18.50;99.90
758;DHT22;363;48.764;9.172;2023-05-23T04:57:02;18.70;99.90
758;DHT22;363;48.764;9.172;2023-05-23T04:59:27;18.50;99.90
758;DHT22;363;48.764;9.172;2023-05-23T05:01:53;18.50;99.90
758;DHT22;363;48.764;9.172;2023-05-23T05:04:18;18.60;99.90
758;DHT22;363;48.764;9.172;2023-05-23T05:06:44;18.60;99.90
758;DHT22;363;48.764;9.172;2023-05-23T05:09:12;18.60;99.90
758;DHT22;363;48.764;9.172;2023-05-23T05:11:37;18.60;99.90
758;DHT22;363;48.764;9.172;2023-05-23T05:14:03;18.60;99.90
758;DHT22;363;48.764;9.172;2023-05-23T05:16:29;19.00;99.90
758;DHT22;363;48.764;9.172;2023-05-23T05:18:55;18.80;99.90
758;DHT22;363;48.764;9.172;2023-05-23T05:21:21;18.70;99.90
758;DHT22;363;48.764;9.172;2023-05-23T05:23:47;18.90;99.90
758;DHT22;363;48.764;9.172;2023-05-23T05:26:13;18.70;99.90
758;DHT22;363;48.764;9.172;2023-05-23T05:28:38;18.80;99.90
758;DHT22;363;48.764;9.172;2023-05-23T05:31:05;18.80;99.90
758;DHT22;363;48.764;9.172;2023-05-23T05:33:31;18.80;99.90
758;DHT22;363;48.764;9.172;2023-05-23T05:36:04;18.90;99.90
758;DHT22;363;48.764;9.172;2023-05-23T05:38:30;18.80;99.90
758;DHT22;363;48.764;9.172;2023-05-23T05:40:56;19.00;99.90
758;DHT22;363;48.764;9.172;2023-05-23T05:43:22;18.80;99.90
758;DHT22;363;48.764;9.172;2023-05-23T05:45:47;18.80;99.90
758;DHT22;363;48.764;9.172;2023-05-23T05:48:13;18.70;99.90
758;DHT22;363;48.764;9.172;2023-05-23T05:50:39;18.80;99.90
758;DHT22;363;48.764;9.172;2023-05-23T05:53:04;18.80;99.90
758;DHT22;363;48.764;9.172;2023-05-23T05:55:32;18.70;99.90
758;DHT22;363;48.764;9.172;2023-05-23T05:57:58;18.70;99.90
758;DHT22;363;48.764;9.172;2023-05-23T06:00:24;18.70;99.90
758;DHT22;363;48.764;9.172;2023-05-23T06:02:49;18.90;99.90
758;DHT22;363;48.764;9.172;2023-05-23T06:05:21;19.00;99.90
758;DHT22;363;48.764;9.172;2023-05-23T06:07:48;19.00;99.90
758;DHT22;363;48.764;9.172;2023-05-23T06:10:14;19.10;99.90
758;DHT22;363;48.764;9.172;2023-05-23T06:12:40;19.10;99.90
758;DHT22;363;48.764;9.172;2023-05-23T06:15:06;19.10;99.90
758;DHT22;363;48.764;9.172;2023-05-23T06:17:32;19.20;99.90
758;DHT22;363;48.764;9.172;2023-05-23T06:19:58;19.20;99.90
758;DHT22;363;48.764;9.172;2023-05-23T06:22:23;19.30;99.90
758;DHT22;363;48.764;9.172;2023-05-23T06:24:49;19.30;99.90
758;DHT22;363;48.764;9.172;2023-05-23T06:27:15;19.50;99.90
758;DHT22;363;48.764;9.172;2023-05-23T06:29:40;19.30;99.90
758;DHT22;363;48.764;9.172;2023-05-23T06:32:07;19.10;99.90
758;DHT22;363;48.764;9.172;2023-05-23T06:34:33;19.30;99.90
758;DHT22;363;48.764;9.172;2023-05-23T06:36:58;19.70;99.90
758;DHT22;363;48.764;9.172;2023-05-23T06:39:23;20.00;99.90
758;DHT22;363;48.764;9.172;2023-05-23T06:41:49;19.80;99.90
758;DHT22;363;48.764;9.172;2023-05-23T06:44:15;19.50;99.90
758;DHT22;363;48.764;9.172;2023-05-23T06:46:47;20.20;99.90
758;DHT22;363;48.764;9.172;2023-05-23T06:49:13;19.60;99.90
758;DHT22;363;48.764;9.172;2023-05-23T06:51:39;19.10;99.90
758;DHT22;363;48.764;9.172;2023-05-23T06:54:04;19.50;99.90
758;DHT22;363;48.764;9.172;2023-05-23T06:56:30;19.40;99.90
758;DHT22;363;48.764;9.172;2023-05-23T06:58:56;19.30;99.90
758;DHT22;363;48.764;9.172;2023-05-23T07:01:21;19.80;99.90
758;DHT22;363;48.764;9.172;2023-05-23T07:03:47;19.40;99.90
758;DHT22;363;48.764;9.172;2023-05-23T07:06:12;19.40;99.90
758;DHT22;363;48.764;9.172;2023-05-23T07:08:38;19.40;99.90
758;DHT22;363;48.764;9.172;2023-05-23T07:11:04;19.40;99.90
758;DHT22;363;48.764;9.172;2023-05-23T07:13:33;19.00;99.90
758;DHT22;363;48.764;9.172;2023-05-23T07:15:58;19.70;99.90
758;DHT22;363;48.764;9.172;2023-05-23T07:18:24;19.30;99.90
758;DHT22;363;48.764;9.172;2023-05-23T07:20:50;19.60;99.90
758;DHT22;363;48.764;9.172;2023-05-23T07:23:16;19.00;99.90
758;DHT22;363;48.764;9.172;2023-05-23T07:25:41;18.60;99.90
758;DHT22;363;48.764;9.172;2023-05-23T07:28:08;18.60;99.90
758;DHT22;363;48.764;9.172;2023-05-23T07:30:34;18.80;99.90
758;DHT22;363;48.764;9.172;2023-05-23T07:32:59;18.90;99.90
758;DHT22;363;48.764;9.172;2023-05-23T07:35:26;18.90;99.90
758;DHT22;363;48.764;9.172;2023-05-23T07:37:52;18.70;99.90
758;DHT22;363;48.764;9.172;2023-05-23T07:40:18;18.50;99.90
758;DHT22;363;48.764;9.172;2023-05-23T07:42:44;18.80;99.90
758;DHT22;363;48.764;9.172;2023-05-23T07:45:10;18.70;99.90
758;DHT22;363;48.764;9.172;2023-05-23T07:47:35;18.40;99.90
758;DHT22;363;48.764;9.172;2023-05-23T07:50:01;18.60;99.90
758;DHT22;363;48.764;9.172;2023-05-23T07:52:28;18.60;99.90
758;DHT22;363;48.764;9.172;2023-05-23T07:54:54;18.60;99.90
758;DHT22;363;48.764;9.172;2023-05-23T07:57:20;18.80;99.90
758;DHT22;363;48.764;9.172;2023-05-23T07:59:46;18.30;99.90
758;DHT22;363;48.764;9.172;2023-05-23T08:02:11;18.70;99.90
758;DHT22;363;48.764;9.172;2023-05-23T08:04:37;18.60;99.90
758;DHT22;363;48.764;9.172;2023-05-23T08:07:04;18.70;99.90
758;DHT22;363;48.764;9.172;2023-05-23T08:09:30;18.20;99.90
758;DHT22;363;48.764;9.172;2023-05-23T08:11:55;18.50;99.90
758;DHT22;363;48.764;9.172;2023-05-23T08:14:21;18.60;99.90
758;DHT22;363;48.764;9.172;2023-05-23T08:16:47;18.60;99.90
758;DHT22;363;48.764;9.172;2023-05-23T08:19:13;18.70;99.90
758;DHT22;363;48.764;9.172;2023-05-23T08:24:05;18.40;99.90
758;DHT22;363;48.764;9.172;2023-05-23T08:26:31;18.30;99.90
758;DHT22;363;48.764;9.172;2023-05-23T08:29:00;18.60;99.90
758;DHT22;363;48.764;9.172;2023-05-23T08:31:27;18.40;99.90
758;DHT22;363;48.764;9.172;2023-05-23T08:33:52;18.70;99.90
758;DHT22;363;48.764;9.172;2023-05-23T08:36:18;18.50;99.90
758;DHT22;363;48.764;9.172;2023-05-23T08:38:43;18.60;99.90
758;DHT22;363;48.764;9.172;2023-05-23T08:41:17;18.40;99.90
758;DHT22;363;48.764;9.172;2023-05-23T08:43:43;18.20;99.90
758;DHT22;363;48.764;9.172;2023-05-23T08:46:09;18.50;99.90
758;DHT22;363;48.764;9.172;2023-05-23T08:48:37;18.20;99.90
758;DHT22;363;48.764;9.172;2023-05-23T08:51:03;18.00;99.90
758;DHT22;363;48.764;9.172;2023-05-23T08:53:30;18.00;99.90
758;DHT22;363;48.764;9.172;2023-05-23T08:55:57;18.20;99.90
758;DHT22;363;48.764;9.172;2023-05-23T08:58:28;18.00;99.90
758;DHT22;363;48.764;9.172;2023-05-23T09:00:54;18.30;99.90
758;DHT22;363;48.764;9.172;2023-05-23T09:03:21;17.90;99.90
758;DHT22;363;48.764;9.172;2023-05-23T09:05:48;19.90;99.90
758;DHT22;363;48.764;9.172;2023-05-23T09:08:15;18.30;99.90
758;DHT22;363;48.764;9.172;2023-05-23T09:10:41;18.30;99.90
758;DHT22;363;48.764;9.172;2023-05-23T09:13:07;18.40;99.90
758;DHT22;363;48.764;9.172;2023-05-23T09:15:34;18.00;99.90
758;DHT22;363;48.764;9.172;2023-05-23T09:18:00;18.60;99.90
758;DHT22;363;48.764;9.172;2023-05-23T09:20:27;18.40;99.90
758;DHT22;363;48.764;9.172;2023-05-23T09:22:54;18.60;99.90
758;DHT22;363;48.764;9.172;2023-05-23T09:25:19;18.40;99.90
758;DHT22;363;48.764;9.172;2023-05-23T09:27:45;18.90;99.90
758;DHT22;363;48.764;9.172;2023-05-23T09:30:12;18.90;99.90
758;DHT22;363;48.764;9.172;2023-05-23T09:32:38;18.90;99.90
758;DHT22;363;48.764;9.172;2023-05-23T09:35:08;19.00;99.90
758;DHT22;363;48.764;9.172;2023-05-23T09:37:44;18.50;99.90
758;DHT22;363;48.764;9.172;2023-05-23T09:40:12;18.90;99.90
758;DHT22;363;48.764;9.172;2023-05-23T09:42:46;18.50;99.90
758;DHT22;363;48.764;9.172;2023-05-23T09:45:13;18.40;99.90
758;DHT22;363;48.764;9.172;2023-05-23T09:47:39;19.10;99.90
758;DHT22;363;48.764;9.172;2023-05-23T09:50:13;18.90;99.90
758;DHT22;363;48.764;9.172;2023-05-23T09:52:38;19.20;99.90
758;DHT22;363;48.764;9.172;2023-05-23T09:55:05;19.30;99.90
758;DHT22;363;48.764;9.172;2023-05-23T09:57:33;18.90;99.90
758;DHT22;363;48.764;9.172;2023-05-23T10:00:00;19.10;99.90
758;DHT22;363;48.764;9.172;2023-05-23T10:07:52;19.50;99.90
758;DHT22;363;48.764;9.172;2023-05-23T10:10:18;19.00;99.90
758;DHT22;363;48.764;9.172;2023-05-23T10:12:50;18.90;99.90
758;DHT22;363;48.764;9.172;2023-05-23T10:15:17;18.90;99.90
758;DHT22;363;48.764;9.172;2023-05-23T10:18:37;19.60;99.90
758;DHT22;363;48.764;9.172;2023-05-23T10:20:44;19.30;99.90
758;DHT22;363;48.764;9.172;2023-05-23T10:23:12;19.50;99.90
758;DHT22;363;48.764;9.172;2023-05-23T10:25:38;20.20;99.90
758;DHT22;363;48.764;9.172;2023-05-23T10:28:05;20.70;99.80
758;DHT22;363;48.764;9.172;2023-05-23T10:30:31;20.80;99.00
758;DHT22;363;48.764;9.172;2023-05-23T10:32:58;20.70;98.50
758;DHT22;363;48.764;9.172;2023-05-23T10:38:40;21.40;97.00
758;DHT22;363;48.764;9.172;2023-05-23T10:41:10;21.70;96.00
758;DHT22;363;48.764;9.172;2023-05-23T10:46:54;22.40;94.30
758;DHT22;363;48.764;9.172;2023-05-23T10:49:40;22.60;94.40
758;DHT22;363;48.764;9.172;2023-05-23T10:52:06;22.20;94.80
758;DHT22;363;48.764;9.172;2023-05-23T10:54:46;22.20;94.80
758;DHT22;363;48.764;9.172;2023-05-23T10:57:16;22.00;94.90
758;DHT22;363;48.764;9.172;2023-05-23T10:59:42;21.50;95.60
758;DHT22;363;48.764;9.172;2023-05-23T11:02:14;21.50;95.20
758;DHT22;363;48.764;9.172;2023-05-23T11:04:40;21.40;95.50
758;DHT22;363;48.764;9.172;2023-05-23T11:07:30;21.20;95.90
758;DHT22;363;48.764;9.172;2023-05-23T11:10:09;21.10;96.20
758;DHT22;363;48.764;9.172;2023-05-23T11:12:37;20.80;96.00
758;DHT22;363;48.764;9.172;2023-05-23T11:15:18;21.00;96.00
758;DHT22;363;48.764;9.172;2023-05-23T11:17:51;21.30;96.00
758;DHT22;363;48.764;9.172;2023-05-23T11:20:18;20.90;95.70
758;DHT22;363;48.764;9.172;2023-05-23T11:23:08;20.60;95.30
758;DHT22;363;48.764;9.172;2023-05-23T11:25:44;20.60;95.70
758;DHT22;363;48.764;9.172;2023-05-23T11:28:11;20.70;95.70
758;DHT22;363;48.764;9.172;2023-05-23T11:30:38;21.20;95.60
758;DHT22;363;48.764;9.172;2023-05-23T11:33:08;21.40;94.30
758;DHT22;363;48.764;9.172;2023-05-23T11:35:45;21.20;93.50
758;DHT22;363;48.764;9.172;2023-05-23T11:38:12;21.80;93.50
758;DHT22;363;48.764;9.172;2023-05-23T11:40:39;21.60;92.90
758;DHT22;363;48.764;9.172;2023-05-23T11:43:10;22.10;93.10
758;DHT22;363;48.764;9.172;2023-05-23T11:45:37;22.20;93.70
758;DHT22;363;48.764;9.172;2023-05-23T11:48:12;21.90;94.00
758;DHT22;363;48.764;9.172;2023-05-23T11:50:52;21.10;94.00
758;DHT22;363;48.764;9.172;2023-05-23T11:53:20;21.40;94.50
758;DHT22;363;48.764;9.172;2023-05-23T11:55:56;21.10;94.20
758;DHT22;363;48.764;9.172;2023-05-23T11:58:35;21.00;94.10
758;DHT22;363;48.764;9.172;2023-05-23T12:01:05;21.40;94.00
758;DHT22;363;48.764;9.172;2023-05-23T12:03:43;21.60;93.50
758;DHT22;363;48.764;9.172;2023-05-23T12:06:10;21.80;92.70
758;DHT22;363;48.764;9.172;2023-05-23T12:08:35;22.00;91.90
758;DHT22;363;48.764;9.172;2023-05-23T12:11:01;22.40;91.90
758;DHT22;363;48.764;9.172;2023-05-23T12:13:28;22.30;91.90
758;DHT22;363;48.764;9.172;2023-05-23T12:15:59;22.00;91.90
758;DHT22;363;48.764;9.172;2023-05-23T12:18:28;22.00;91.90
758;DHT22;363;48.764;9.172;2023-05-23T12:20:54;22.30;92.20
758;DHT22;363;48.764;9.172;2023-05-23T12:23:26;22.10;91.90
758;DHT22;363;48.764;9.172;2023-05-23T12:25:53;22.50;91.80
758;DHT22;363;48.764;9.172;2023-05-23T12:28:21;22.30;91.70
758;DHT22;363;48.764;9.172;2023-05-23T12:30:58;22.40;92.00
758;DHT22;363;48.764;9.172;2023-05-23T12:33:24;22.40;91.50
758;DHT22;363;48.764;9.172;2023-05-23T12:35:52;22.30;91.40
758;DHT22;363;48.764;9.172;2023-05-23T12:38:17;22.10;92.30
758;DHT22;363;48.764;9.172;2023-05-23T12:40:44;22.40;91.80
758;DHT22;363;48.764;9.172;2023-05-23T12:43:10;22.00;91.90
758;DHT22;363;48.764;9.172;2023-05-23T12:45:36;22.50;91.90
758;DHT22;363;48.764;9.172;2023-05-23T12:48:03;22.60;92.20
758;DHT22;363;48.764;9.172;2023-05-23T12:50:29;22.30;92.00
758;DHT22;363;48.764;9.172;2023-05-23T12:52:55;22.90;92.40
758;DHT22;363;48.764;9.172;2023-05-23T12:55:21;22.30;92.40
758;DHT22;363;48.764;9.172;2023-05-23T12:57:46;22.30;91.70
758;DHT22;363;48.764;9.172;2023-05-23T13:00:12;22.50;91.40
758;DHT22;363;48.764;9.172;2023-05-23T13:02:38;22.60;91.20
758;DHT22;363;48.764;9.172;2023-05-23T13:05:04;22.80;90.80
758;DHT22;363;48.764;9.172;2023-05-23T13:07:30;22.80;90.70
758;DHT22;363;48.764;9.172;2023-05-23T13:09:56;22.90;91.00
758;DHT22;363;48.764;9.172;2023-05-23T13:12:21;22.80;90.80
758;DHT22;363;48.764;9.172;2023-05-23T13:14:47;22.70;91.00
758;DHT22;363;48.764;9.172;2023-05-23T13:17:13;22.50;90.80
758;DHT22;363;48.764;9.172;2023-05-23T13:19:39;22.30;91.90
758;DHT22;363;48.764;9.172;2023-05-23T13:22:05;22.40;91.20
758;DHT22;363;48.764;9.172;2023-05-23T13:24:35;23.00;90.40
758;DHT22;363;48.764;9.172;2023-05-23T13:27:02;23.30;90.60
758;DHT22;363;48.764;9.172;2023-05-23T13:29:27;22.70;90.90
758;DHT22;363;48.764;9.172;2023-05-23T13:31:53;22.60;90.80
758;DHT22;363;48.764;9.172;2023-05-23T13:34:18;22.60;91.00
758;DHT22;363;48.764;9.172;2023-05-23T13:36:44;23.00;90.90
758;DHT22;363;48.764;9.172;2023-05-23T13:39:09;23.00;91.30
758;DHT22;363;48.764;9.172;2023-05-23T13:41:35;22.50;91.40
758;DHT22;363;48.764;9.172;2023-05-23T13:44:01;22.20;91.90
758;DHT22;363;48.764;9.172;2023-05-23T13:46:26;21.90;92.20
758;DHT22;363;48.764;9.172;2023-05-23T13:48:52;21.90;92.70
758;DHT22;363;48.764;9.172;2023-05-23T13:51:17;21.60;93.10
758;DHT22;363;48.764;9.172;2023-05-23T13:53:43;21.50;93.40
758;DHT22;363;48.764;9.172;2023-05-23T13:56:09;21.50;93.40
758;DHT22;363;48.764;9.172;2023-05-23T13:58:35;21.70;93.60
758;DHT22;363;48.764;9.172;2023-05-23T14:01:00;21.50;93.60
758;DHT22;363;48.764;9.172;2023-05-23T14:03:26;21.70;93.10
758;DHT22;363;48.764;9.172;2023-05-23T14:05:52;22.10;92.70
758;DHT22;363;48.764;9.172;2023-05-23T14:08:18;22.40;92.60
758;DHT22;363;48.764;9.172;2023-05-23T14:10:43;21.90;92.30
758;DHT22;363;48.764;9.172;2023-05-23T14:13:09;22.00;92.50
758;DHT22;363;48.764;9.172;2023-05-23T14:15:35;21.50;92.30
758;DHT22;363;48.764;9.172;2023-05-23T14:18:02;22.40;92.90
758;DHT22;363;48.764;9.172;2023-05-23T14:20:28;22.10;92.70
758;DHT22;363;48.764;9.172;2023-05-23T14:22:54;22.10;92.90
758;DHT22;363;48.764;9.172;2023-05-23T14:25:20;22.30;93.20
758;DHT22;363;48.764;9.172;2023-05-23T14:27:45;22.10;93.00
758;DHT22;363;48.764;9.172;2023-05-23T14:30:11;22.20;92.70
758;DHT22;363;48.764;9.172;2023-05-23T14:32:37;22.20;92.80
758;DHT22;363;48.764;9.172;2023-05-23T14:35:10;22.70;93.40
758;DHT22;363;48.764;9.172;2023-05-23T14:37:36;22.20;93.10
758;DHT22;363;48.764;9.172;2023-05-23T14:40:03;22.20;93.00
758;DHT22;363;48.764;9.172;2023-05-23T14:42:29;22.30;92.90
758;DHT22;363;48.764;9.172;2023-05-23T14:44:54;21.50;92.50
758;DHT22;363;48.764;9.172;2023-05-23T14:47:20;22.10;93.00
758;DHT22;363;48.764;9.172;2023-05-23T14:49:46;22.30;93.10
758;DHT22;363;48.764;9.172;2023-05-23T14:52:12;22.20;93.20
758;DHT22;363;48.764;9.172;2023-05-23T14:54:38;22.70;92.60
758;DHT22;363;48.764;9.172;2023-05-23T14:57:06;22.50;92.30
758;DHT22;363;48.764;9.172;2023-05-23T14:59:32;22.40;91.90
758;DHT22;363;48.764;9.172;2023-05-23T15:01:58;22.40;92.00
758;DHT22;363;48.764;9.172;2023-05-23T15:04:23;22.40;92.00
758;DHT22;363;48.764;9.172;2023-05-23T15:06:49;22.50;92.20
758;DHT22;363;48.764;9.172;2023-05-23T15:09:16;22.20;92.30
758;DHT22;363;48.764;9.172;2023-05-23T15:11:43;22.30;92.30
758;DHT22;363;48.764;9.172;2023-05-23T15:14:10;23.30;92.90
758;DHT22;363;48.764;9.172;2023-05-23T15:16:35;22.10;91.80
758;DHT22;363;48.764;9.172;2023-05-23T15:19:02;22.40;91.90
758;DHT22;363;48.764;9.172;2023-05-23T15:21:27;22.10;92.00
758;DHT22;363;48.764;9.172;2023-05-23T15:23:53;22.40;92.40
758;DHT22;363;48.764;9.172;2023-05-23T15:26:19;22.20;92.50
758;DHT22;363;48.764;9.172;2023-05-23T15:28:44;21.80;92.30
758;DHT22;363;48.764;9.172;2023-05-23T15:31:10;21.60;91.90
758;DHT22;363;48.764;9.172;2023-05-23T15:33:35;21.50;92.20
758;DHT22;363;48.764;9.172;2023-05-23T15:36:01;21.90;92.50
758;DHT22;363;48.764;9.172;2023-05-23T15:38:26;22.00;92.10
758;DHT22;363;48.764;9.172;2023-05-23T15:40:52;22.20;91.60
758;DHT22;363;48.764;9.172;2023-05-23T15:43:20;22.10;91.00
758;DHT22;363;48.764;9.172;2023-05-23T15:45:48;22.10;91.40
758;DHT22;363;48.764;9.172;2023-05-23T15:48:13;21.90;91.90
758;DHT22;363;48.764;9.172;2023-05-23T15:50:39;22.30;92.10
758;DHT22;363;48.764;9.172;2023-05-23T15:53:05;22.40;92.30
758;DHT22;363;48.764;9.172;2023-05-23T15:55:30;22.00;92.20
758;DHT22;363;48.764;9.172;2023-05-23T15:57:56;22.10;92.10
758;DHT22;363;48.764;9.172;2023-05-23T16:00:21;22.10;92.10
758;DHT22;363;48.764;9.172;2023-05-23T16:05:53;21.80;92.40
758;DHT22;363;48.764;9.172;2023-05-23T16:08:19;22.10;92.70
758;DHT22;363;48.764;9.172;2023-05-23T16:10:45;22.00;92.20
758;DHT22;363;48.764;9.172;2023-05-23T16:13:10;21.80;92.50
758;DHT22;363;48.764;9.172;2023-05-23T16:15:36;21.90;92.50
758;DHT22;363;48.764;9.172;2023-05-23T16:18:01;21.30;92.70
758;DHT22;363;48.764;9.172;2023-05-23T16:20:27;21.30;93.10
758;DHT22;363;48.764;9.172;2023-05-23T16:22:53;21.50;93.60
758;DHT22;363;48.764;9.172;2023-05-23T16:25:18;21.40;93.90
758;DHT22;363;48.764;9.172;2023-05-23T16:27:44;21.10;94.10
758;DHT22;363;48.764;9.172;2023-05-23T16:30:10;21.00;94.60
758;DHT22;363;48.764;9.172;2023-05-23T16:32:35;20.90;94.90
758;DHT22;363;48.764;9.172;2023-05-23T16:35:01;21.30;94.70
758;DHT22;363;48.764;9.172;2023-05-23T16:37:26;20.70;94.30
758;DHT22;363;48.764;9.172;2023-05-23T16:39:52;21.50;95.10
758;DHT22;363;48.764;9.172;2023-05-23T16:42:17;20.90;94.60
758;DHT22;363;48.764;9.172;2023-05-23T16:44:44;21.00;94.20
758;DHT22;363;48.764;9.172;2023-05-23T16:47:09;20.40;94.70
758;DHT22;363;48.764;9.172;2023-05-23T16:49:35;20.60;95.00
758;DHT22;363;48.764;9.172;2023-05-23T16:52:00;20.60;95.20
758;DHT22;363;48.764;9.172;2023-05-23T16:54:26;20.90;95.60
758;DHT22;363;48.764;9.172;2023-05-23T16:56:51;20.40;95.50
758;DHT22;363;48.764;9.172;2023-05-23T16:59:17;20.00;95.90